createdAt,value
2023-04-27T00:02:04.884Z,3.42
2023-04-27T00:04:32.855Z,3.75
2023-04-27T00:07:00.210Z,3.35
2023-04-27T00:09:27.370Z,2.70
2023-04-27T00:11:55.394Z,3.62
2023-04-27T00:14:22.917Z,3.20
2023-04-27T00:16:50.364Z,3.33
2023-04-27T00:19:17.944Z,3.67
2023-04-27T00:21:45.187Z,3.08
2023-04-27T00:24:12.493Z,2.42
2023-04-27T00:26:40.020Z,3.40
2023-04-27T00:29:07.352Z,2.35
2023-04-27T00:31:34.589Z,2.92
2023-04-27T00:34:02.766Z,2.50
2023-04-27T00:36:30.076Z,2.60
2023-04-27T00:38:57.230Z,2.78
2023-04-27T00:41:24.908Z,2.62
2023-04-27T00:43:52.109Z,2.33
2023-04-27T00:46:19.967Z,2.60
2023-04-27T00:48:47.877Z,2.78
2023-04-27T00:51:15.148Z,2.15
2023-04-27T00:53:42.397Z,2.90
2023-04-27T00:56:09.840Z,2.05
2023-04-27T00:58:37.265Z,2.95
2023-04-27T01:01:05.847Z,2.62
2023-04-27T01:03:33.356Z,1.80
2023-04-27T01:06:01.906Z,2.50
2023-04-27T01:08:29.718Z,2.58
2023-04-27T01:10:57.260Z,2.65
2023-04-27T01:13:24.656Z,2.30
2023-04-27T01:15:51.825Z,2.67
2023-04-27T01:18:19.517Z,2.75
2023-04-27T01:20:46.702Z,2.50
2023-04-27T01:23:16.825Z,2.45
2023-04-27T01:25:45.192Z,2.50
2023-04-27T01:28:12.769Z,2.30
2023-04-27T01:30:39.938Z,3.33
2023-04-27T01:33:07.364Z,2.78
2023-04-27T01:35:34.566Z,2.55
2023-04-27T01:38:02.734Z,2.92
2023-04-27T01:40:30.584Z,3.08
2023-04-27T01:42:58.055Z,2.40
2023-04-27T01:45:25.422Z,2.58
2023-04-27T01:47:53.321Z,3.15
2023-04-27T01:50:20.922Z,2.75
2023-04-27T01:52:48.458Z,2.70
2023-04-27T01:55:15.974Z,2.95
2023-04-27T01:57:43.218Z,2.90
2023-04-27T02:00:10.985Z,2.70
2023-04-27T02:02:47.852Z,2.80
2023-04-27T02:05:15.839Z,2.62
2023-04-27T02:07:42.972Z,2.67
2023-04-27T02:10:10.998Z,2.87
2023-04-27T02:12:38.558Z,2.58
2023-04-27T02:15:08.733Z,3.00
2023-04-27T02:17:36.235Z,3.10
2023-04-27T02:20:05.467Z,2.85
2023-04-27T02:22:32.862Z,3.17
2023-04-27T02:25:00.534Z,2.50
2023-04-27T02:27:27.716Z,2.53
2023-04-27T02:29:55.288Z,3.30
2023-04-27T02:32:23.301Z,3.30
2023-04-27T02:34:50.745Z,2.97
2023-04-27T02:37:19.080Z,3.25
2023-04-27T02:39:47.355Z,3.12
2023-04-27T02:42:16.496Z,2.97
2023-04-27T02:44:43.613Z,3.30
2023-04-27T02:47:11.524Z,3.80
2023-04-27T02:49:39.752Z,3.33
2023-04-27T02:52:07.419Z,3.03
2023-04-27T02:54:34.798Z,3.05
2023-04-27T02:57:02.597Z,3.00
2023-04-27T02:59:29.856Z,3.20
2023-04-27T03:01:57.068Z,3.08
2023-04-27T03:04:24.565Z,3.83
2023-04-27T03:06:51.891Z,4.03
2023-04-27T03:09:19.175Z,3.97
2023-04-27T03:11:46.733Z,3.15
2023-04-27T03:14:13.957Z,4.97
2023-04-27T03:16:41.119Z,3.53
2023-04-27T03:19:08.633Z,3.05
2023-04-27T03:21:36.444Z,3.70
2023-04-27T03:24:04.108Z,4.45
2023-04-27T03:26:31.723Z,3.60
2023-04-27T03:28:58.936Z,3.58
2023-04-27T03:31:28.697Z,3.12
2023-04-27T03:33:57.116Z,3.10
2023-04-27T03:36:24.281Z,3.17
2023-04-27T03:38:51.348Z,3.50
2023-04-27T03:41:18.911Z,3.30
2023-04-27T03:43:46.312Z,3.70
2023-04-27T03:46:13.655Z,3.62
2023-04-27T03:48:41.272Z,3.28
2023-04-27T03:51:08.987Z,3.65
2023-04-27T03:53:36.438Z,4.32
2023-04-27T03:56:04.072Z,3.95
2023-04-27T03:58:31.742Z,3.67
2023-04-27T04:01:01.505Z,3.58
2023-04-27T04:03:29.278Z,2.90
2023-04-27T04:05:56.546Z,3.42
2023-04-27T04:08:23.916Z,3.55
2023-04-27T04:10:51.438Z,3.95
2023-04-27T04:13:18.919Z,3.45
2023-04-27T04:15:46.185Z,3.37
2023-04-27T04:18:13.745Z,3.35
2023-04-27T04:20:40.990Z,3.87
2023-04-27T04:23:08.613Z,3.75
2023-04-27T04:25:36.494Z,3.78
2023-04-27T04:28:03.764Z,3.30
2023-04-27T04:30:31.064Z,4.93
2023-04-27T04:32:58.710Z,4.00
2023-04-27T04:35:25.983Z,3.75
2023-04-27T04:37:53.403Z,3.20
2023-04-27T04:40:21.590Z,4.37
2023-04-27T04:42:48.820Z,3.60
2023-04-27T04:45:16.064Z,3.58
2023-04-27T04:47:43.653Z,3.67
2023-04-27T04:50:11.916Z,4.07
2023-04-27T04:52:39.657Z,3.40
2023-04-27T04:55:07.376Z,3.60
2023-04-27T04:57:34.544Z,4.82
2023-04-27T05:00:02.068Z,2.87
2023-04-27T05:02:38.454Z,3.10
2023-04-27T05:05:05.947Z,2.58
2023-04-27T05:07:33.999Z,2.80
2023-04-27T05:10:01.270Z,2.83
2023-04-27T05:12:28.361Z,2.60
2023-04-27T05:14:55.778Z,2.35
2023-04-27T05:17:23.196Z,2.83
2023-04-27T05:19:50.341Z,2.40
2023-04-27T05:22:17.804Z,2.90
2023-04-27T05:24:45.069Z,2.75
2023-04-27T05:27:14.163Z,2.75
2023-04-27T05:29:42.289Z,2.83
2023-04-27T05:32:09.821Z,3.42
2023-04-27T05:34:37.176Z,3.90
2023-04-27T05:37:04.739Z,11.93
2023-04-27T05:39:32.048Z,3.72
2023-04-27T05:41:59.256Z,2.80
2023-04-27T05:44:29.361Z,2.60
2023-04-27T05:46:57.199Z,4.05
2023-04-27T05:49:24.458Z,2.83
2023-04-27T05:51:52.095Z,3.35
2023-04-27T05:54:19.240Z,3.22
2023-04-27T05:56:46.490Z,2.58
2023-04-27T05:59:14.121Z,2.28
2023-04-27T06:01:41.501Z,2.65
2023-04-27T06:04:09.456Z,3.12
2023-04-27T06:06:37.193Z,2.92
2023-04-27T06:09:04.612Z,3.70
2023-04-27T06:11:32.219Z,2.55
2023-04-27T06:13:59.464Z,2.22
2023-04-27T06:16:26.737Z,2.95
2023-04-27T06:18:54.381Z,3.42
2023-04-27T06:21:21.633Z,2.97
2023-04-27T06:23:49.028Z,2.80
2023-04-27T06:26:16.580Z,2.90
2023-04-27T06:28:43.706Z,2.62
2023-04-27T06:31:10.886Z,3.55
2023-04-27T06:33:38.388Z,3.05
2023-04-27T06:36:05.947Z,2.40
2023-04-27T06:38:33.212Z,2.58
2023-04-27T06:41:00.851Z,3.22
2023-04-27T06:43:27.956Z,3.12
2023-04-27T06:45:55.198Z,3.00
2023-04-27T06:48:22.872Z,3.28
2023-04-27T06:50:50.097Z,3.42
2023-04-27T06:53:17.500Z,3.42
2023-04-27T06:55:47.775Z,2.83
2023-04-27T06:58:15.646Z,2.65
2023-04-27T07:00:42.840Z,2.85
2023-04-27T07:03:10.623Z,2.45
2023-04-27T07:05:37.960Z,2.97
2023-04-27T07:08:08.270Z,2.55
2023-04-27T07:10:36.478Z,2.90
2023-04-27T07:13:03.738Z,2.65
2023-04-27T07:15:31.764Z,2.67
2023-04-27T07:17:59.550Z,2.85
2023-04-27T07:20:26.936Z,2.40
2023-04-27T07:22:54.289Z,2.60
2023-04-27T07:25:21.765Z,2.72
2023-04-27T07:27:49.301Z,2.72
2023-04-27T07:30:17.951Z,2.22
2023-04-27T07:32:46.529Z,2.45
2023-04-27T07:35:14.797Z,2.25
2023-04-27T07:37:44.546Z,2.78
2023-04-27T07:40:16.947Z,2.28
2023-04-27T07:42:46.415Z,3.00
2023-04-27T07:45:14.224Z,2.80
2023-04-27T07:47:42.609Z,2.25
2023-04-27T07:50:10.906Z,2.40
2023-04-27T07:52:38.955Z,2.47
2023-04-27T07:55:06.723Z,2.58
2023-04-27T07:57:34.957Z,2.83
2023-04-27T08:00:05.328Z,2.87
2023-04-27T08:02:40.139Z,2.85
2023-04-27T08:05:08.747Z,4.28
2023-04-27T08:07:42.549Z,2.47
2023-04-27T08:10:12.289Z,2.40
2023-04-27T08:12:39.661Z,2.85
2023-04-27T08:15:07.740Z,2.33
2023-04-27T08:17:36.615Z,2.05
2023-04-27T08:20:04.321Z,2.25
2023-04-27T08:22:31.633Z,2.60
2023-04-27T08:25:00.006Z,2.00
2023-04-27T08:30:57.368Z,2.28
2023-04-27T08:33:25.030Z,2.03
2023-04-27T08:35:54.641Z,2.80
2023-04-27T08:38:23.670Z,2.37
2023-04-27T08:40:52.469Z,1.70
2023-04-27T08:43:19.807Z,2.12
2023-04-27T08:45:50.639Z,1.67
2023-04-27T08:48:19.012Z,1.75
2023-04-27T08:50:50.750Z,1.55
2023-04-27T08:53:19.923Z,1.80
2023-04-27T08:55:47.642Z,1.77
2023-04-27T08:58:14.963Z,1.52
2023-04-27T09:00:44.236Z,1.60
2023-04-27T09:03:27.410Z,1.37
2023-04-27T09:06:03.878Z,1.37
2023-04-27T09:08:42.330Z,1.60
2023-04-27T09:11:10.330Z,1.65
2023-04-27T09:13:42.422Z,1.85
2023-04-27T09:16:10.288Z,2.03
2023-04-27T09:18:38.209Z,2.70
2023-04-27T09:21:05.677Z,1.60
2023-04-27T09:23:34.253Z,1.52
2023-04-27T09:26:04.161Z,1.77
2023-04-27T09:28:32.448Z,2.12
2023-04-27T09:31:01.820Z,1.37
2023-04-27T09:33:33.689Z,2.10
2023-04-27T09:36:06.631Z,5.72
2023-04-27T09:38:34.433Z,1.95
2023-04-27T09:41:03.000Z,2.25
2023-04-27T09:43:31.717Z,4.53
2023-04-27T09:45:59.232Z,2.30
2023-04-27T09:48:27.065Z,2.30
2023-04-27T09:50:54.596Z,2.45
2023-04-27T09:53:26.892Z,1.45
2023-04-27T09:56:09.481Z,1.67
2023-04-27T09:58:48.954Z,1.95
2023-04-27T10:01:40.918Z,4.82
2023-04-27T10:04:27.745Z,3.75
2023-04-27T10:07:26.520Z,2.10
2023-04-27T10:10:03.059Z,1.52
2023-04-27T10:16:18.147Z,2.12
2023-04-27T10:21:23.972Z,1.75
2023-04-27T10:23:53.365Z,1.90
2023-04-27T10:26:25.311Z,2.10
2023-04-27T10:28:58.135Z,2.33
2023-04-27T10:31:29.647Z,2.25
2023-04-27T10:34:11.618Z,2.10
2023-04-27T10:36:40.940Z,1.92
2023-04-27T10:39:17.023Z,1.62
2023-04-27T10:42:00.908Z,1.83
2023-04-27T10:44:31.171Z,4.70
2023-04-27T10:47:00.868Z,2.63
2023-04-27T10:49:31.118Z,2.22
2023-04-27T10:55:31.003Z,2.10
2023-04-27T10:57:59.293Z,2.20
2023-04-27T11:00:33.968Z,4.55
2023-04-27T11:03:29.729Z,1.92
2023-04-27T11:06:02.564Z,1.92
2023-04-27T11:08:36.922Z,2.20
2023-04-27T11:11:06.225Z,3.10
2023-04-27T11:13:33.882Z,5.53
2023-04-27T11:16:01.477Z,2.62
2023-04-27T11:18:33.913Z,3.05
2023-04-27T11:21:19.135Z,1.80
2023-04-27T11:23:46.811Z,2.40
2023-04-27T11:26:26.704Z,1.90
2023-04-27T11:29:05.617Z,2.70
2023-04-27T11:35:03.516Z,7.77
2023-04-27T11:37:31.809Z,2.22
2023-04-27T11:40:00.627Z,2.55
2023-04-27T11:42:29.076Z,1.98
2023-04-27T11:44:58.574Z,1.70
2023-04-27T11:47:28.129Z,2.42
2023-04-27T11:50:00.661Z,1.57
2023-04-27T11:52:32.410Z,2.22
2023-04-27T11:55:01.176Z,2.15
2023-04-27T11:57:31.010Z,2.47
2023-04-27T12:00:03.175Z,2.15
2023-04-27T12:02:41.703Z,1.75
2023-04-27T12:05:10.213Z,1.95
2023-04-27T12:07:38.158Z,1.98
2023-04-27T12:10:06.913Z,2.40
2023-04-27T12:12:34.387Z,1.95
2023-04-27T12:15:01.759Z,2.55
2023-04-27T12:17:28.918Z,2.40
2023-04-27T12:19:56.576Z,2.37
2023-04-27T12:22:24.139Z,2.37
2023-04-27T12:24:51.658Z,2.20
2023-04-27T12:27:19.366Z,2.65
2023-04-27T12:30:19.684Z,2.22
2023-04-27T12:32:51.228Z,6.80
2023-04-27T12:35:19.971Z,2.12
2023-04-27T12:37:57.734Z,2.20
2023-04-27T12:40:25.677Z,2.12
2023-04-27T12:42:53.473Z,1.80
2023-04-27T12:45:21.243Z,2.08
2023-04-27T12:48:01.790Z,1.90
2023-04-27T12:50:34.515Z,2.00
2023-04-27T12:53:02.586Z,1.95
2023-04-27T12:55:33.586Z,1.75
2023-04-27T12:58:02.737Z,3.03
2023-04-27T13:00:30.159Z,2.85
2023-04-27T13:02:58.540Z,2.05
2023-04-27T13:05:26.587Z,2.08
2023-04-27T13:07:54.172Z,3.40
2023-04-27T13:10:21.515Z,2.97
2023-04-27T13:12:49.216Z,2.00
2023-04-27T13:15:16.506Z,1.80
2023-04-27T13:17:44.188Z,3.25
2023-04-27T13:20:12.413Z,1.92
2023-04-27T13:22:40.886Z,2.17
2023-04-27T13:25:09.748Z,2.17
2023-04-27T13:27:37.526Z,2.37
2023-04-27T13:30:05.497Z,2.05
2023-04-27T13:32:32.978Z,2.67
2023-04-27T13:35:00.789Z,2.55
2023-04-27T13:37:28.161Z,2.03
2023-04-27T13:39:55.488Z,2.75
2023-04-27T13:42:29.403Z,2.10
2023-04-27T13:44:57.290Z,5.62
2023-04-27T13:47:24.927Z,3.10
2023-04-27T13:49:52.242Z,2.05
2023-04-27T13:52:19.728Z,2.72
2023-04-27T13:54:47.268Z,2.37
2023-04-27T13:57:14.600Z,2.30
2023-04-27T13:59:42.095Z,1.77
2023-04-27T14:02:09.619Z,2.42
2023-04-27T14:04:37.263Z,2.40
2023-04-27T14:07:04.613Z,6.97
2023-04-27T14:09:32.026Z,3.45
2023-04-27T14:12:00.414Z,2.05
2023-04-27T14:14:27.690Z,2.12
2023-04-27T14:16:55.357Z,1.83
2023-04-27T14:19:23.081Z,2.00
2023-04-27T14:21:51.247Z,2.03
2023-04-27T14:24:18.912Z,2.40
2023-04-27T14:26:47.682Z,2.22
2023-04-27T14:29:15.560Z,2.62
2023-04-27T14:31:43.604Z,1.80
2023-04-27T14:34:11.354Z,2.00
2023-04-27T14:36:38.864Z,2.00
2023-04-27T14:39:06.873Z,1.83
2023-04-27T14:41:35.896Z,1.90
2023-04-27T14:44:07.638Z,2.03
2023-04-27T14:46:35.386Z,1.92
2023-04-27T14:49:02.756Z,1.98
2023-04-27T14:51:30.250Z,2.40
2023-04-27T14:53:57.860Z,3.78
2023-04-27T14:56:25.324Z,2.25
2023-04-27T14:58:52.537Z,2.03
2023-04-27T15:01:20.114Z,2.60
2023-04-27T15:03:47.614Z,2.55
2023-04-27T15:06:15.219Z,1.90
2023-04-27T15:08:42.835Z,1.70
2023-04-27T15:11:10.146Z,2.35
2023-04-27T15:13:37.428Z,2.40
2023-04-27T15:16:07.327Z,2.10
2023-04-27T15:18:35.430Z,2.22
2023-04-27T15:21:02.925Z,2.70
2023-04-27T15:23:30.511Z,2.08
2023-04-27T15:25:58.633Z,2.80
2023-04-27T15:28:26.352Z,2.28
2023-04-27T15:30:53.921Z,2.75
2023-04-27T15:33:21.228Z,1.83
2023-04-27T15:35:51.011Z,4.15
2023-04-27T15:38:23.599Z,1.98
2023-04-27T15:40:51.264Z,2.42
2023-04-27T15:43:19.162Z,2.20
2023-04-27T15:45:46.573Z,2.00
2023-04-27T15:48:14.230Z,2.20
2023-04-27T15:50:42.173Z,2.85
2023-04-27T15:53:09.465Z,1.62
2023-04-27T15:55:40.563Z,1.77
2023-04-27T15:58:11.066Z,2.03
2023-04-27T16:00:38.512Z,3.30
2023-04-27T16:03:09.425Z,2.55
2023-04-27T16:05:38.152Z,2.58
2023-04-27T16:08:06.209Z,2.03
2023-04-27T16:10:34.019Z,2.10
2023-04-27T16:13:01.722Z,2.10
2023-04-27T16:15:29.670Z,2.65
2023-04-27T16:17:57.186Z,2.60
2023-04-27T16:20:25.566Z,2.30
2023-04-27T16:22:57.164Z,2.83
2023-04-27T16:25:24.460Z,2.62
2023-04-27T16:27:52.321Z,2.70
2023-04-27T16:30:20.205Z,2.47
2023-04-27T16:32:48.197Z,2.22
2023-04-27T16:35:15.569Z,2.47
2023-04-27T16:37:43.187Z,2.67
2023-04-27T16:40:11.106Z,2.17
2023-04-27T16:42:38.712Z,2.65
2023-04-27T16:45:09.075Z,2.30
2023-04-27T16:47:38.449Z,2.95
2023-04-27T16:50:06.764Z,2.60
2023-04-27T16:52:34.061Z,2.40
2023-04-27T16:55:01.480Z,1.92
2023-04-27T16:57:29.178Z,2.25
2023-04-27T16:59:56.488Z,1.83
2023-04-27T17:02:25.628Z,2.33
2023-04-27T17:04:57.761Z,2.20
2023-04-27T17:07:28.694Z,2.53
2023-04-27T17:09:56.395Z,2.95
2023-04-27T17:12:23.716Z,2.72
2023-04-27T17:14:51.061Z,2.35
2023-04-27T17:17:18.666Z,2.85
2023-04-27T17:19:46.647Z,2.95
2023-04-27T17:22:14.966Z,6.25
2023-04-27T17:24:42.370Z,5.57
2023-04-27T17:27:09.891Z,3.12
2023-04-27T17:29:37.504Z,4.70
2023-04-27T17:32:05.758Z,3.40
2023-04-27T17:34:33.250Z,3.33
2023-04-27T17:37:00.906Z,3.10
2023-04-27T17:39:28.847Z,2.90
2023-04-27T17:41:57.093Z,4.03
2023-04-27T17:44:24.506Z,2.65
2023-04-27T17:46:52.505Z,2.92
2023-04-27T17:49:19.729Z,5.60
2023-04-27T17:51:48.557Z,5.10
2023-04-27T17:54:16.218Z,4.12
2023-04-27T17:56:44.453Z,4.80
2023-04-27T17:59:11.760Z,5.20
2023-04-27T18:01:39.574Z,11.07
2023-04-27T18:04:07.530Z,5.87
2023-04-27T18:06:35.216Z,4.55
2023-04-27T18:09:03.212Z,4.62
2023-04-27T18:11:30.750Z,5.80
2023-04-27T18:13:59.749Z,6.90
2023-04-27T18:16:27.462Z,8.07
2023-04-27T18:18:56.849Z,9.18
2023-04-27T18:21:30.044Z,10.55
2023-04-27T18:23:58.283Z,10.38
2023-04-27T18:26:25.837Z,9.93
2023-04-27T18:28:53.887Z,14.98
2023-04-27T18:31:24.285Z,21.70
2023-04-27T18:33:52.216Z,32.85
2023-04-27T18:36:21.204Z,42.05
2023-04-27T18:38:48.919Z,29.02
2023-04-27T18:41:16.779Z,39.13
2023-04-27T18:43:44.281Z,116.47
2023-04-27T18:46:12.379Z,139.43
2023-04-27T18:48:41.224Z,84.53
2023-04-27T18:51:09.140Z,61.95
2023-04-27T18:53:37.383Z,29.75
2023-04-27T18:56:06.349Z,19.15
2023-04-27T18:58:35.035Z,18.87
2023-04-27T19:01:03.440Z,17.15
2023-04-27T19:03:31.348Z,13.85
2023-04-27T19:06:00.901Z,13.27
2023-04-27T19:08:29.173Z,15.75
2023-04-27T19:10:58.461Z,17.12
2023-04-27T19:13:25.992Z,16.70
2023-04-27T19:15:53.644Z,15.55
2023-04-27T19:18:21.185Z,14.10
2023-04-27T19:20:49.599Z,15.00
2023-04-27T19:23:20.312Z,14.98
2023-04-27T19:25:48.424Z,15.10
2023-04-27T19:28:16.814Z,19.40
2023-04-27T19:30:48.204Z,15.00
2023-04-27T19:33:19.661Z,15.48
2023-04-27T19:35:48.728Z,15.23
2023-04-27T19:38:16.161Z,15.13
2023-04-27T19:40:43.564Z,14.18
2023-04-27T19:43:12.124Z,13.80
2023-04-27T19:45:42.152Z,18.80
2023-04-27T19:48:10.317Z,20.48
2023-04-27T19:50:41.890Z,22.27
2023-04-27T19:53:10.248Z,21.92
2023-04-27T19:55:38.229Z,23.55
2023-04-27T19:58:05.565Z,21.15
2023-04-27T20:00:33.656Z,14.65
2023-04-27T20:03:01.490Z,14.52
2023-04-27T20:05:29.164Z,14.30
2023-04-27T20:07:57.356Z,12.88
2023-04-27T20:10:24.928Z,15.30
2023-04-27T20:12:56.824Z,12.57
2023-04-27T20:15:25.895Z,13.40
2023-04-27T20:17:53.898Z,13.68
2023-04-27T20:20:21.281Z,16.35
2023-04-27T20:22:48.713Z,16.08
2023-04-27T20:25:16.067Z,12.50
2023-04-27T20:27:43.335Z,13.13
2023-04-27T20:30:11.701Z,27.58
2023-04-27T20:32:41.754Z,36.60
2023-04-27T20:35:11.917Z,23.30
2023-04-27T20:41:01.235Z,17.95
2023-04-27T20:46:59.593Z,17.40
2023-04-27T20:53:15.249Z,15.27
2023-04-27T20:59:30.273Z,14.87
2023-04-27T21:25:52.075Z,30.33
2023-04-27T21:38:29.589Z,31.30
2023-04-27T21:58:21.078Z,18.92
2023-04-27T22:00:48.806Z,19.20
2023-04-27T22:13:23.175Z,16.48
2023-04-27T22:19:38.163Z,17.33
2023-04-27T22:25:57.105Z,15.18
2023-04-27T22:32:11.183Z,14.02
2023-04-27T23:05:38.672Z,14.55
2023-04-27T23:08:06.835Z,12.95
2023-04-27T23:10:34.929Z,13.32
2023-04-27T23:13:04.341Z,13.93
2023-04-27T23:15:31.824Z,11.82
2023-04-27T23:17:59.304Z,11.50
2023-04-27T23:20:28.670Z,14.25
2023-04-27T23:22:56.921Z,13.45
2023-04-27T23:25:24.335Z,13.85
2023-04-27T23:27:52.577Z,14.05
2023-04-27T23:30:21.608Z,14.20
2023-04-27T23:32:49.050Z,15.20
2023-04-27T23:35:16.422Z,16.02
2023-04-27T23:37:44.432Z,14.05
2023-04-27T23:40:12.361Z,13.45
2023-04-27T23:42:39.558Z,12.57
2023-04-27T23:45:07.550Z,11.50
2023-04-27T23:47:34.880Z,10.52
2023-04-27T23:50:05.124Z,12.02
2023-04-27T23:52:32.725Z,11.90
2023-04-27T23:55:00.026Z,11.77
2023-04-27T23:57:27.204Z,11.55
2023-04-27T23:59:54.684Z,13.27
